sensor_id;sensor_type;location;lat;lon;timestamp;pressure;altitude;pressure_sealevel;temperature;humidity
61697;BME280;47610;52.252;20.922;2023-11-21T00:03:37;99549.38;;;-0.42;100.00
61697;BME280;47610;52.252;20.922;2023-11-21T00:08:40;99553.30;;;-0.43;100.00
61697;BME280;47610;52.252;20.922;2023-11-21T00:13:44;99565.15;;;-0.46;100.00
61697;BME280;47610;52.252;20.922;2023-11-21T00:18:47;99566.83;;;-0.48;100.00
61697;BME280;47610;52.252;20.922;2023-11-21T00:23:50;99579.57;;;-0.41;100.00
61697;BME280;47610;52.252;20.922;2023-11-21T00:28:53;99585.98;;;-0.40;100.00
61697;BME280;47610;52.252;20.922;2023-11-21T00:33:56;99588.30;;;-0.44;100.00
61697;BME280;47610;52.252;20.922;2023-11-21T00:39:00;99585.64;;;-0.46;100.00
61697;BME280;47610;52.252;20.922;2023-11-21T00:44:03;99590.09;;;-0.40;100.00
61697;BME280;47610;52.252;20.922;2023-11-21T00:49:06;99593.17;;;-0.42;100.00
61697;BME280;47610;52.252;20.922;2023-11-21T00:54:09;99594.98;;;-0.43;100.00
61697;BME280;47610;52.252;20.922;2023-11-21T00:59:13;99600.52;;;-0.43;100.00
61697;BME280;47610;52.252;20.922;2023-11-21T01:04:16;99603.15;;;-0.48;100.00
61697;BME280;47610;52.252;20.922;2023-11-21T01:09:19;99603.77;;;-0.56;100.00
61697;BME280;47610;52.252;20.922;2023-11-21T01:14:22;99607.34;;;-0.57;100.00
61697;BME280;47610;52.252;20.922;2023-11-21T01:19:25;99613.17;;;-0.63;100.00
61697;BME280;47610;52.252;20.922;2023-11-21T01:24:28;99619.00;;;-0.63;100.00
61697;BME280;47610;52.252;20.922;2023-11-21T01:29:31;99621.56;;;-0.66;100.00
61697;BME280;47610;52.252;20.922;2023-11-21T01:34:34;99622.30;;;-0.70;100.00
61697;BME280;47610;52.252;20.922;2023-11-21T01:39:37;99627.02;;;-0.78;100.00
61697;BME280;47610;52.252;20.922;2023-11-21T01:44:41;99623.33;;;-0.78;100.00
61697;BME280;47610;52.252;20.922;2023-11-21T01:49:46;99619.45;;;-0.83;100.00
61697;BME280;47610;52.252;20.922;2023-11-21T01:54:49;99628.09;;;-0.86;100.00
61697;BME280;47610;52.252;20.922;2023-11-21T01:59:54;99628.66;;;-0.90;100.00
61697;BME280;47610;52.252;20.922;2023-11-21T02:04:57;99627.54;;;-0.90;100.00
61697;BME280;47610;52.252;20.922;2023-11-21T02:10:00;99622.78;;;-0.88;100.00
61697;BME280;47610;52.252;20.922;2023-11-21T02:15:05;99624.91;;;-0.89;100.00
61697;BME280;47610;52.252;20.922;2023-11-21T02:20:10;99628.98;;;-0.92;100.00
61697;BME280;47610;52.252;20.922;2023-11-21T02:25:14;99639.13;;;-0.94;100.00
61697;BME280;47610;52.252;20.922;2023-11-21T02:30:17;99645.19;;;-0.87;100.00
61697;BME280;47610;52.252;20.922;2023-11-21T02:35:20;99647.80;;;-0.83;100.00
61697;BME280;47610;52.252;20.922;2023-11-21T02:40:23;99643.36;;;-0.83;100.00
61697;BME280;47610;52.252;20.922;2023-11-21T02:45:27;99649.30;;;-0.87;100.00
61697;BME280;47610;52.252;20.922;2023-11-21T02:50:30;99649.76;;;-0.93;100.00
61697;BME280;47610;52.252;20.922;2023-11-21T02:55:33;99654.51;;;-0.95;100.00
61697;BME280;47610;52.252;20.922;2023-11-21T03:00:36;99658.50;;;-0.96;100.00
61697;BME280;47610;52.252;20.922;2023-11-21T03:05:40;99657.88;;;-0.96;100.00
61697;BME280;47610;52.252;20.922;2023-11-21T03:10:43;99656.44;;;-0.98;100.00
61697;BME280;47610;52.252;20.922;2023-11-21T03:15:46;99658.55;;;-0.98;100.00
61697;BME280;47610;52.252;20.922;2023-11-21T03:20:52;99661.75;;;-0.92;100.00
61697;BME280;47610;52.252;20.922;2023-11-21T03:25:55;99662.02;;;-0.88;100.00
61697;BME280;47610;52.252;20.922;2023-11-21T03:30:59;99668.19;;;-0.96;100.00
61697;BME280;47610;52.252;20.922;2023-11-21T03:36:02;99668.02;;;-1.04;100.00
61697;BME280;47610;52.252;20.922;2023-11-21T03:41:06;99671.61;;;-0.98;100.00
61697;BME280;47610;52.252;20.922;2023-11-21T03:46:09;99668.34;;;-1.02;100.00
61697;BME280;47610;52.252;20.922;2023-11-21T03:51:12;99681.11;;;-1.11;100.00
61697;BME280;47610;52.252;20.922;2023-11-21T03:56:16;99684.75;;;-1.23;100.00
61697;BME280;47610;52.252;20.922;2023-11-21T04:01:23;99692.74;;;-1.26;100.00
61697;BME280;47610;52.252;20.922;2023-11-21T04:06:26;99702.78;;;-1.23;100.00
61697;BME280;47610;52.252;20.922;2023-11-21T04:11:29;99706.08;;;-1.25;100.00
61697;BME280;47610;52.252;20.922;2023-11-21T04:16:32;99707.70;;;-1.26;100.00
61697;BME280;47610;52.252;20.922;2023-11-21T04:21:36;99704.47;;;-1.28;100.00
61697;BME280;47610;52.252;20.922;2023-11-21T04:26:39;99709.40;;;-1.34;100.00
61697;BME280;47610;52.252;20.922;2023-11-21T04:31:42;99711.30;;;-1.39;100.00
61697;BME280;47610;52.252;20.922;2023-11-21T04:36:45;99717.48;;;-1.41;100.00
61697;BME280;47610;52.252;20.922;2023-11-21T04:41:48;99727.35;;;-1.38;100.00
61697;BME280;47610;52.252;20.922;2023-11-21T04:46:51;99738.08;;;-1.39;100.00
61697;BME280;47610;52.252;20.922;2023-11-21T04:51:54;99739.45;;;-1.38;100.00
61697;BME280;47610;52.252;20.922;2023-11-21T04:56:57;99736.83;;;-1.39;100.00
61697;BME280;47610;52.252;20.922;2023-11-21T05:02:01;99736.70;;;-1.37;100.00
61697;BME280;47610;52.252;20.922;2023-11-21T05:07:04;99736.89;;;-1.33;100.00
61697;BME280;47610;52.252;20.922;2023-11-21T05:12:08;99742.58;;;-1.32;100.00
61697;BME280;47610;52.252;20.922;2023-11-21T05:17:11;99753.24;;;-1.29;100.00
61697;BME280;47610;52.252;20.922;2023-11-21T05:22:14;99757.21;;;-1.23;100.00
61697;BME280;47610;52.252;20.922;2023-11-21T05:27:17;99759.84;;;-1.19;100.00
61697;BME280;47610;52.252;20.922;2023-11-21T05:32:20;99768.73;;;-1.26;100.00
61697;BME280;47610;52.252;20.922;2023-11-21T05:37:24;99774.58;;;-1.34;100.00
61697;BME280;47610;52.252;20.922;2023-11-21T05:42:27;99779.27;;;-1.36;100.00
61697;BME280;47610;52.252;20.922;2023-11-21T05:47:30;99785.10;;;-1.39;100.00
61697;BME280;47610;52.252;20.922;2023-11-21T05:52:33;99787.50;;;-1.40;100.00
61697;BME280;47610;52.252;20.922;2023-11-21T05:57:36;99788.62;;;-1.37;100.00
61697;BME280;47610;52.252;20.922;2023-11-21T06:02:40;99796.96;;;-1.39;100.00
61697;BME280;47610;52.252;20.922;2023-11-21T06:07:43;99801.77;;;-1.39;100.00
61697;BME280;47610;52.252;20.922;2023-11-21T06:12:46;99807.23;;;-1.35;100.00
61697;BME280;47610;52.252;20.922;2023-11-21T06:17:50;99815.06;;;-1.33;100.00
61697;BME280;47610;52.252;20.922;2023-11-21T06:22:53;99825.36;;;-1.32;100.00
61697;BME280;47610;52.252;20.922;2023-11-21T06:27:56;99828.95;;;-1.32;100.00
61697;BME280;47610;52.252;20.922;2023-11-21T06:32:59;99833.88;;;-1.31;100.00
61697;BME280;47610;52.252;20.922;2023-11-21T06:38:02;99838.66;;;-1.30;100.00
61697;BME280;47610;52.252;20.922;2023-11-21T06:43:06;99837.42;;;-1.32;100.00
61697;BME280;47610;52.252;20.922;2023-11-21T06:48:09;99842.92;;;-1.28;100.00
61697;BME280;47610;52.252;20.922;2023-11-21T06:53:12;99847.63;;;-1.30;100.00
61697;BME280;47610;52.252;20.922;2023-11-21T06:58:15;99862.02;;;-1.34;100.00
61697;BME280;47610;52.252;20.922;2023-11-21T07:03:18;99861.81;;;-1.38;100.00
61697;BME280;47610;52.252;20.922;2023-11-21T07:08:21;99876.36;;;-1.39;100.00
61697;BME280;47610;52.252;20.922;2023-11-21T07:13:24;99882.67;;;-1.44;100.00
61697;BME280;47610;52.252;20.922;2023-11-21T07:18:27;99880.77;;;-1.49;100.00
61697;BME280;47610;52.252;20.922;2023-11-21T07:23:30;99884.71;;;-1.51;100.00
61697;BME280;47610;52.252;20.922;2023-11-21T07:28:34;99889.41;;;-1.49;100.00
61697;BME280;47610;52.252;20.922;2023-11-21T07:33:38;99891.85;;;-1.47;100.00
61697;BME280;47610;52.252;20.922;2023-11-21T07:38:40;99892.52;;;-1.47;100.00
61697;BME280;47610;52.252;20.922;2023-11-21T07:43:43;99889.83;;;-1.50;100.00
61697;BME280;47610;52.252;20.922;2023-11-21T07:48:47;99897.46;;;-1.47;100.00
61697;BME280;47610;52.252;20.922;2023-11-21T07:53:50;99898.25;;;-1.44;100.00
61697;BME280;47610;52.252;20.922;2023-11-21T07:58:53;99898.33;;;-1.40;100.00
61697;BME280;47610;52.252;20.922;2023-11-21T08:03:56;99902.92;;;-1.35;100.00
61697;BME280;47610;52.252;20.922;2023-11-21T08:09:00;99906.58;;;-1.28;100.00
61697;BME280;47610;52.252;20.922;2023-11-21T08:14:03;99910.89;;;-1.15;100.00
61697;BME280;47610;52.252;20.922;2023-11-21T08:19:06;99913.83;;;-1.12;100.00
61697;BME280;47610;52.252;20.922;2023-11-21T08:24:10;99913.86;;;-1.11;100.00
61697;BME280;47610;52.252;20.922;2023-11-21T08:29:13;99920.98;;;-1.10;100.00
61697;BME280;47610;52.252;20.922;2023-11-21T08:34:16;99926.07;;;-1.01;100.00
61697;BME280;47610;52.252;20.922;2023-11-21T08:39:19;99934.48;;;-0.94;100.00
61697;BME280;47610;52.252;20.922;2023-11-21T08:44:22;99936.56;;;-0.95;100.00
61697;BME280;47610;52.252;20.922;2023-11-21T08:49:25;99944.45;;;-0.89;100.00
61697;BME280;47610;52.252;20.922;2023-11-21T08:54:28;99949.92;;;-0.82;100.00
61697;BME280;47610;52.252;20.922;2023-11-21T08:59:31;99951.74;;;-0.78;100.00
61697;BME280;47610;52.252;20.922;2023-11-21T09:04:34;99959.06;;;-0.78;100.00
61697;BME280;47610;52.252;20.922;2023-11-21T09:09:37;99964.25;;;-0.74;100.00
61697;BME280;47610;52.252;20.922;2023-11-21T09:14:41;99973.20;;;-0.64;100.00
61697;BME280;47610;52.252;20.922;2023-11-21T09:19:44;99967.35;;;-0.53;100.00
61697;BME280;47610;52.252;20.922;2023-11-21T09:24:47;99971.77;;;-0.47;100.00
61697;BME280;47610;52.252;20.922;2023-11-21T09:29:50;99973.30;;;-0.45;100.00
61697;BME280;47610;52.252;20.922;2023-11-21T09:34:53;99973.67;;;-0.44;100.00
61697;BME280;47610;52.252;20.922;2023-11-21T09:39:56;99979.11;;;-0.40;100.00
61697;BME280;47610;52.252;20.922;2023-11-21T09:45:09;99971.64;;;-0.33;100.00
61697;BME280;47610;52.252;20.922;2023-11-21T09:50:18;99968.52;;;-0.33;100.00
61697;BME280;47610;52.252;20.922;2023-11-21T09:55:22;99967.82;;;-0.33;100.00
61697;BME280;47610;52.252;20.922;2023-11-21T10:00:25;99968.20;;;-0.31;100.00
61697;BME280;47610;52.252;20.922;2023-11-21T10:05:28;99975.40;;;-0.26;100.00
61697;BME280;47610;52.252;20.922;2023-11-21T10:10:33;99979.90;;;-0.19;100.00
61697;BME280;47610;52.252;20.922;2023-11-21T10:15:37;99987.93;;;-0.16;100.00
61697;BME280;47610;52.252;20.922;2023-11-21T10:20:41;99987.09;;;-0.16;100.00
61697;BME280;47610;52.252;20.922;2023-11-21T10:25:44;99988.58;;;-0.15;100.00
61697;BME280;47610;52.252;20.922;2023-11-21T10:30:47;99988.61;;;-0.11;100.00
61697;BME280;47610;52.252;20.922;2023-11-21T10:35:50;99988.73;;;-0.12;100.00
61697;BME280;47610;52.252;20.922;2023-11-21T10:40:53;99984.05;;;-0.19;100.00
61697;BME280;47610;52.252;20.922;2023-11-21T10:45:59;99995.23;;;-0.22;100.00
61697;BME280;47610;52.252;20.922;2023-11-21T10:51:07;100005.80;;;-0.22;100.00
61697;BME280;47610;52.252;20.922;2023-11-21T10:56:13;100008.02;;;-0.24;100.00
61697;BME280;47610;52.252;20.922;2023-11-21T11:01:19;100008.39;;;-0.25;100.00
61697;BME280;47610;52.252;20.922;2023-11-21T11:06:22;100012.80;;;-0.25;100.00
61697;BME280;47610;52.252;20.922;2023-11-21T11:11:27;100008.64;;;-0.35;100.00
61697;BME280;47610;52.252;20.922;2023-11-21T11:16:31;100008.90;;;-0.38;100.00
61697;BME280;47610;52.252;20.922;2023-11-21T11:21:43;100010.39;;;-0.37;100.00
61697;BME280;47610;52.252;20.922;2023-11-21T11:26:55;100017.09;;;-0.38;100.00
61697;BME280;47610;52.252;20.922;2023-11-21T11:32:09;100025.00;;;-0.38;100.00
61697;BME280;47610;52.252;20.922;2023-11-21T11:37:15;100023.54;;;-0.38;100.00
61697;BME280;47610;52.252;20.922;2023-11-21T11:42:19;100026.25;;;-0.37;100.00
61697;BME280;47610;52.252;20.922;2023-11-21T11:47:26;100024.45;;;-0.40;100.00
61697;BME280;47610;52.252;20.922;2023-11-21T11:52:37;100024.35;;;-0.43;100.00
61697;BME280;47610;52.252;20.922;2023-11-21T11:57:41;100028.84;;;-0.44;100.00
61697;BME280;47610;52.252;20.922;2023-11-21T12:02:46;100033.21;;;-0.44;100.00
61697;BME280;47610;52.252;20.922;2023-11-21T12:07:50;100030.88;;;-0.41;100.00
61697;BME280;47610;52.252;20.922;2023-11-21T12:12:52;100036.83;;;-0.44;100.00
61697;BME280;47610;52.252;20.922;2023-11-21T12:17:56;100041.66;;;-0.45;100.00
61697;BME280;47610;52.252;20.922;2023-11-21T12:23:00;100045.13;;;-0.47;100.00
61697;BME280;47610;52.252;20.922;2023-11-21T12:28:04;100051.09;;;-0.38;100.00
61697;BME280;47610;52.252;20.922;2023-11-21T12:33:07;100055.40;;;-0.35;100.00
61697;BME280;47610;52.252;20.922;2023-11-21T12:38:10;100058.87;;;-0.38;100.00
61697;BME280;47610;52.252;20.922;2023-11-21T12:43:13;100062.23;;;-0.42;100.00
61697;BME280;47610;52.252;20.922;2023-11-21T12:48:17;100061.42;;;-0.45;100.00
61697;BME280;47610;52.252;20.922;2023-11-21T12:53:20;100066.39;;;-0.47;100.00
61697;BME280;47610;52.252;20.922;2023-11-21T12:58:25;100061.64;;;-0.53;100.00
61697;BME280;47610;52.252;20.922;2023-11-21T13:03:28;100068.70;;;-0.49;100.00
61697;BME280;47610;52.252;20.922;2023-11-21T13:08:32;100076.94;;;-0.48;100.00
61697;BME280;47610;52.252;20.922;2023-11-21T13:13:35;100084.19;;;-0.56;100.00
61697;BME280;47610;52.252;20.922;2023-11-21T13:18:38;100081.83;;;-0.58;100.00
61697;BME280;47610;52.252;20.922;2023-11-21T13:23:42;100091.33;;;-0.60;100.00
61697;BME280;47610;52.252;20.922;2023-11-21T13:28:45;100101.12;;;-0.60;100.00
61697;BME280;47610;52.252;20.922;2023-11-21T13:33:49;100112.45;;;-0.62;100.00
61697;BME280;47610;52.252;20.922;2023-11-21T13:38:52;100121.72;;;-0.64;100.00
61697;BME280;47610;52.252;20.922;2023-11-21T13:43:55;100117.98;;;-0.61;100.00
61697;BME280;47610;52.252;20.922;2023-11-21T13:48:59;100127.00;;;-0.69;100.00
61697;BME280;47610;52.252;20.922;2023-11-21T13:54:02;100141.22;;;-0.78;100.00
61697;BME280;47610;52.252;20.922;2023-11-21T13:59:05;100154.06;;;-0.79;100.00
61697;BME280;47610;52.252;20.922;2023-11-21T14:04:08;100167.59;;;-0.73;100.00
61697;BME280;47610;52.252;20.922;2023-11-21T14:09:11;100179.86;;;-0.70;100.00
61697;BME280;47610;52.252;20.922;2023-11-21T14:14:15;100184.35;;;-0.73;100.00
61697;BME280;47610;52.252;20.922;2023-11-21T14:19:18;100191.63;;;-0.69;100.00
61697;BME280;47610;52.252;20.922;2023-11-21T14:24:21;100199.90;;;-0.69;100.00
61697;BME280;47610;52.252;20.922;2023-11-21T14:29:24;100208.45;;;-0.78;100.00
61697;BME280;47610;52.252;20.922;2023-11-21T14:34:27;100221.99;;;-0.89;100.00
61697;BME280;47610;52.252;20.922;2023-11-21T14:39:30;100235.97;;;-0.87;100.00
61697;BME280;47610;52.252;20.922;2023-11-21T14:44:34;100247.04;;;-0.80;100.00
61697;BME280;47610;52.252;20.922;2023-11-21T14:49:37;100244.31;;;-0.76;100.00
61697;BME280;47610;52.252;20.922;2023-11-21T14:54:40;100247.42;;;-0.78;100.00
61697;BME280;47610;52.252;20.922;2023-11-21T14:59:46;100247.22;;;-0.75;100.00
61697;BME280;47610;52.252;20.922;2023-11-21T15:04:49;100247.92;;;-0.75;100.00
61697;BME280;47610;52.252;20.922;2023-11-21T15:09:52;100243.02;;;-0.88;100.00
61697;BME280;47610;52.252;20.922;2023-11-21T15:14:56;100249.21;;;-0.93;100.00
61697;BME280;47610;52.252;20.922;2023-11-21T15:19:59;100251.92;;;-1.05;100.00
61697;BME280;47610;52.252;20.922;2023-11-21T15:25:02;100263.69;;;-1.06;100.00
61697;BME280;47610;52.252;20.922;2023-11-21T15:30:08;100264.86;;;-1.11;100.00
61697;BME280;47610;52.252;20.922;2023-11-21T15:35:11;100269.42;;;-1.14;100.00
61697;BME280;47610;52.252;20.922;2023-11-21T15:40:14;100270.15;;;-1.19;100.00
61697;BME280;47610;52.252;20.922;2023-11-21T15:45:17;100282.27;;;-1.24;100.00
61697;BME280;47610;52.252;20.922;2023-11-21T15:50:21;100290.47;;;-1.27;100.00
61697;BME280;47610;52.252;20.922;2023-11-21T15:55:25;100295.35;;;-1.33;100.00
61697;BME280;47610;52.252;20.922;2023-11-21T16:00:28;100296.77;;;-1.34;100.00
61697;BME280;47610;52.252;20.922;2023-11-21T16:05:31;100307.11;;;-1.32;100.00
61697;BME280;47610;52.252;20.922;2023-11-21T16:10:34;100320.52;;;-1.26;100.00
61697;BME280;47610;52.252;20.922;2023-11-21T16:15:37;100330.25;;;-1.16;100.00
61697;BME280;47610;52.252;20.922;2023-11-21T16:20:40;100341.35;;;-1.06;100.00
61697;BME280;47610;52.252;20.922;2023-11-21T16:25:43;100343.33;;;-1.03;100.00
61697;BME280;47610;52.252;20.922;2023-11-21T16:30:46;100356.01;;;-1.02;100.00
61697;BME280;47610;52.252;20.922;2023-11-21T16:35:49;100352.71;;;-1.05;100.00
61697;BME280;47610;52.252;20.922;2023-11-21T16:40:53;100355.43;;;-1.18;100.00
61697;BME280;47610;52.252;20.922;2023-11-21T16:45:56;100364.23;;;-1.20;100.00
61697;BME280;47610;52.252;20.922;2023-11-21T16:50:59;100378.48;;;-1.25;100.00
61697;BME280;47610;52.252;20.922;2023-11-21T16:56:02;100377.16;;;-1.25;100.00
61697;BME280;47610;52.252;20.922;2023-11-21T17:01:05;100378.11;;;-1.27;100.00
61697;BME280;47610;52.252;20.922;2023-11-21T17:06:08;100381.20;;;-1.24;100.00
61697;BME280;47610;52.252;20.922;2023-11-21T17:11:12;100384.84;;;-1.25;100.00
61697;BME280;47610;52.252;20.922;2023-11-21T17:16:15;100390.59;;;-1.29;100.00
61697;BME280;47610;52.252;20.922;2023-11-21T17:21:19;100395.51;;;-1.35;100.00
61697;BME280;47610;52.252;20.922;2023-11-21T17:26:22;100407.15;;;-1.37;100.00
61697;BME280;47610;52.252;20.922;2023-11-21T17:31:25;100410.32;;;-1.38;100.00
61697;BME280;47610;52.252;20.922;2023-11-21T17:36:28;100420.10;;;-1.40;100.00
61697;BME280;47610;52.252;20.922;2023-11-21T17:41:31;100422.15;;;-1.43;100.00
61697;BME280;47610;52.252;20.922;2023-11-21T17:46:34;100426.81;;;-1.47;100.00
61697;BME280;47610;52.252;20.922;2023-11-21T17:51:40;100426.67;;;-1.49;100.00
61697;BME280;47610;52.252;20.922;2023-11-21T17:56:43;100438.07;;;-1.42;100.00
61697;BME280;47610;52.252;20.922;2023-11-21T18:01:47;100443.66;;;-1.36;100.00
61697;BME280;47610;52.252;20.922;2023-11-21T18:06:51;100455.02;;;-1.34;100.00
61697;BME280;47610;52.252;20.922;2023-11-21T18:11:54;100461.73;;;-1.40;100.00
61697;BME280;47610;52.252;20.922;2023-11-21T18:16:57;100463.39;;;-1.39;100.00
61697;BME280;47610;52.252;20.922;2023-11-21T18:22:00;100473.95;;;-1.39;100.00
61697;BME280;47610;52.252;20.922;2023-11-21T18:27:03;100480.27;;;-1.39;100.00
61697;BME280;47610;52.252;20.922;2023-11-21T18:32:07;100488.55;;;-1.37;100.00
61697;BME280;47610;52.252;20.922;2023-11-21T18:37:11;100491.71;;;-1.36;100.00
61697;BME280;47610;52.252;20.922;2023-11-21T18:42:14;100498.16;;;-1.37;100.00
61697;BME280;47610;52.252;20.922;2023-11-21T18:47:17;100499.71;;;-1.42;100.00
61697;BME280;47610;52.252;20.922;2023-11-21T18:52:20;100495.18;;;-1.44;100.00
61697;BME280;47610;52.252;20.922;2023-11-21T18:57:23;100500.13;;;-1.43;100.00
61697;BME280;47610;52.252;20.922;2023-11-21T19:02:26;100501.80;;;-1.42;100.00
61697;BME280;47610;52.252;20.922;2023-11-21T19:07:29;100513.04;;;-1.44;100.00
61697;BME280;47610;52.252;20.922;2023-11-21T19:12:32;100524.83;;;-1.44;100.00
61697;BME280;47610;52.252;20.922;2023-11-21T19:17:36;100523.92;;;-1.48;100.00
61697;BME280;47610;52.252;20.922;2023-11-21T19:22:39;100528.20;;;-1.53;100.00
61697;BME280;47610;52.252;20.922;2023-11-21T19:27:42;100534.25;;;-1.59;100.00
61697;BME280;47610;52.252;20.922;2023-11-21T19:32:45;100541.17;;;-1.59;100.00
61697;BME280;47610;52.252;20.922;2023-11-21T19:37:48;100548.75;;;-1.62;100.00
61697;BME280;47610;52.252;20.922;2023-11-21T19:42:52;100557.95;;;-1.60;100.00
61697;BME280;47610;52.252;20.922;2023-11-21T19:47:55;100566.99;;;-1.62;100.00
61697;BME280;47610;52.252;20.922;2023-11-21T19:52:58;100575.50;;;-1.62;100.00
61697;BME280;47610;52.252;20.922;2023-11-21T19:58:01;100576.36;;;-1.59;100.00
61697;BME280;47610;52.252;20.922;2023-11-21T20:03:04;100581.36;;;-1.61;100.00
61697;BME280;47610;52.252;20.922;2023-11-21T20:08:07;100593.35;;;-1.58;100.00
61697;BME280;47610;52.252;20.922;2023-11-21T20:13:10;100600.35;;;-1.56;100.00
61697;BME280;47610;52.252;20.922;2023-11-21T20:18:14;100608.41;;;-1.59;100.00
61697;BME280;47610;52.252;20.922;2023-11-21T20:23:17;100616.34;;;-1.60;100.00
61697;BME280;47610;52.252;20.922;2023-11-21T20:28:20;100621.54;;;-1.60;100.00
61697;BME280;47610;52.252;20.922;2023-11-21T20:33:23;100623.31;;;-1.64;100.00
61697;BME280;47610;52.252;20.922;2023-11-21T20:38:26;100631.82;;;-1.65;100.00
61697;BME280;47610;52.252;20.922;2023-11-21T20:43:29;100642.56;;;-1.71;100.00
61697;BME280;47610;52.252;20.922;2023-11-21T20:48:32;100656.48;;;-1.69;100.00
61697;BME280;47610;52.252;20.922;2023-11-21T20:53:36;100646.05;;;-1.73;100.00
61697;BME280;47610;52.252;20.922;2023-11-21T20:58:39;100667.50;;;-1.70;100.00
61697;BME280;47610;52.252;20.922;2023-11-21T21:03:42;100679.39;;;-1.64;100.00
61697;BME280;47610;52.252;20.922;2023-11-21T21:08:45;100682.20;;;-1.53;100.00
61697;BME280;47610;52.252;20.922;2023-11-21T21:13:48;100689.99;;;-1.44;100.00
61697;BME280;47610;52.252;20.922;2023-11-21T21:18:51;100692.98;;;-1.41;100.00
61697;BME280;47610;52.252;20.922;2023-11-21T21:23:56;100700.41;;;-1.36;100.00
61697;BME280;47610;52.252;20.922;2023-11-21T21:28:59;100708.45;;;-1.35;100.00
61697;BME280;47610;52.252;20.922;2023-11-21T21:34:02;100714.67;;;-1.40;100.00
61697;BME280;47610;52.252;20.922;2023-11-21T21:39:05;100715.82;;;-1.42;100.00
61697;BME280;47610;52.252;20.922;2023-11-21T21:44:08;100719.73;;;-1.36;100.00
61697;BME280;47610;52.252;20.922;2023-11-21T21:49:12;100725.68;;;-1.32;100.00
61697;BME280;47610;52.252;20.922;2023-11-21T21:54:15;100725.21;;;-1.32;100.00
61697;BME280;47610;52.252;20.922;2023-11-21T21:59:19;100741.27;;;-1.27;100.00
61697;BME280;47610;52.252;20.922;2023-11-21T22:04:22;100752.89;;;-1.32;100.00
61697;BME280;47610;52.252;20.922;2023-11-21T22:09:25;100759.84;;;-1.31;100.00
61697;BME280;47610;52.252;20.922;2023-11-21T22:14:28;100764.70;;;-1.34;100.00
61697;BME280;47610;52.252;20.922;2023-11-21T22:19:31;100772.95;;;-1.33;100.00
61697;BME280;47610;52.252;20.922;2023-11-21T22:24:34;100776.98;;;-1.30;100.00
61697;BME280;47610;52.252;20.922;2023-11-21T22:29:39;100783.64;;;-1.32;100.00
61697;BME280;47610;52.252;20.922;2023-11-21T22:34:42;100787.48;;;-1.36;100.00
61697;BME280;47610;52.252;20.922;2023-11-21T22:39:45;100787.24;;;-1.42;100.00
61697;BME280;47610;52.252;20.922;2023-11-21T22:44:48;100793.23;;;-1.45;100.00
61697;BME280;47610;52.252;20.922;2023-11-21T22:49:52;100794.61;;;-1.45;100.00
61697;BME280;47610;52.252;20.922;2023-11-21T22:54:55;100789.25;;;-1.44;100.00
61697;BME280;47610;52.252;20.922;2023-11-21T22:59:58;100800.63;;;-1.41;100.00
61697;BME280;47610;52.252;20.922;2023-11-21T23:05:01;100797.00;;;-1.42;100.00
61697;BME280;47610;52.252;20.922;2023-11-21T23:10:05;100801.20;;;-1.41;100.00
61697;BME280;47610;52.252;20.922;2023-11-21T23:15:09;100809.87;;;-1.43;100.00
61697;BME280;47610;52.252;20.922;2023-11-21T23:20:13;100813.23;;;-1.48;100.00
61697;BME280;47610;52.252;20.922;2023-11-21T23:25:16;100831.06;;;-1.48;100.00
61697;BME280;47610;52.252;20.922;2023-11-21T23:30:19;100839.83;;;-1.45;100.00
61697;BME280;47610;52.252;20.922;2023-11-21T23:35:23;100845.54;;;-1.44;100.00
61697;BME280;47610;52.252;20.922;2023-11-21T23:40:26;100844.45;;;-1.47;100.00
61697;BME280;47610;52.252;20.922;2023-11-21T23:45:29;100844.05;;;-1.52;100.00
61697;BME280;47610;52.252;20.922;2023-11-21T23:50:32;100851.39;;;-1.50;100.00
61697;BME280;47610;52.252;20.922;2023-11-21T23:55:35;100857.80;;;-1.46;100.00
